Time;durP1;ratioP1;P1;durP2;ratioP2;P2;SDS_P1;SDS_P2;PMS_P1;PMS_P2;Temp;Humidity;BMP_temperature;BMP_pressure;BME280_temperature;BME280_humidity;BME280_pressure;Samples;Min_cycle;Max_cycle;Signal;HPM_P1;HPM_P2
2021/10/09 00:02:01;;;;;;;29.63;26.45;;;;;;;10.30;100.00;102821.16;5190572;28;20028;-67
2021/10/09 00:04:32;;;;;;;31.60;28.20;;;;;;;10.26;100.00;102823.09;5189584;28;20068;-67
2021/10/09 00:07:03;;;;;;;31.98;28.08;;;;;;;10.26;100.00;102817.84;5192883;28;20509;-68
2021/10/09 00:09:35;;;;;;;31.17;27.58;;;;;;;10.22;100.00;102813.66;5194159;28;20459;-69
2021/10/09 00:12:06;;;;;;;29.20;25.73;;;;;;;10.21;100.00;102810.22;5195342;28;20057;-68
2021/10/09 00:14:37;;;;;;;32.00;28.55;;;;;;;10.17;100.00;102813.91;5193923;28;20457;-67
2021/10/09 00:17:13;;;;;;;30.45;27.25;;;;;;;10.14;100.00;102813.22;5198463;28;20025;-68
2021/10/09 00:19:44;;;;;;;31.73;27.98;;;;;;;10.08;100.00;102806.53;5198491;28;20030;-68
2021/10/09 00:22:16;;;;;;;31.27;27.90;;;;;;;10.15;100.00;102817.53;5197327;28;20105;-69
2021/10/09 00:24:47;;;;;;;31.67;28.33;;;;;;;10.08;100.00;102816.19;5190821;28;20026;-68
2021/10/09 00:27:18;;;;;;;36.33;29.02;;;;;;;10.10;100.00;102816.94;5189117;28;20093;-67
2021/10/09 00:29:50;;;;;;;31.27;27.85;;;;;;;10.12;100.00;102820.31;5190585;28;20038;-68
2021/10/09 00:32:21;;;;;;;31.40;27.25;;;;;;;10.00;100.00;102819.19;5193753;28;20026;-68
2021/10/09 00:34:52;;;;;;;32.25;28.10;;;;;;;10.02;100.00;102812.09;5189163;28;20031;-69
2021/10/09 00:37:24;;;;;;;32.47;28.58;;;;;;;10.07;100.00;102811.84;5187824;28;20034;-67
2021/10/09 00:39:55;;;;;;;31.98;27.80;;;;;;;10.01;100.00;102813.00;5189079;28;20023;-68
2021/10/09 00:42:26;;;;;;;31.42;28.00;;;;;;;9.97;100.00;102812.31;5191946;28;20057;-68
2021/10/09 00:44:58;;;;;;;33.47;29.83;;;;;;;9.98;100.00;102811.38;5189028;28;20026;-68
2021/10/09 00:47:29;;;;;;;32.15;28.60;;;;;;;9.99;100.00;102802.59;5184784;28;20116;-70
2021/10/09 00:50:00;;;;;;;34.10;30.20;;;;;;;9.98;100.00;102808.78;5189340;28;20038;-67
2021/10/09 00:52:34;;;;;;;34.15;28.67;;;;;;;9.94;100.00;102801.16;5192488;28;20034;-68
2021/10/09 00:55:06;;;;;;;35.03;29.75;;;;;;;9.96;100.00;102805.41;5192239;28;20472;-68
2021/10/09 00:57:40;;;;;;;33.10;29.48;;;;;;;9.92;100.00;102803.84;5189258;28;20084;-67
2021/10/09 01:00:12;;;;;;;35.22;30.52;;;;;;;9.89;100.00;102797.94;5192004;28;20472;-68
2021/10/09 01:02:43;;;;;;;35.55;30.85;;;;;;;9.83;100.00;102800.84;5186691;28;20084;-68
2021/10/09 01:05:16;;;;;;;35.15;30.70;;;;;;;9.87;100.00;102802.38;5191805;28;20058;-67
2021/10/09 01:07:47;;;;;;;38.87;31.47;;;;;;;9.83;100.00;102799.06;5188325;28;20370;-68
2021/10/09 01:10:18;;;;;;;33.97;29.88;;;;;;;9.74;100.00;102799.56;5189574;28;20297;-69
2021/10/09 01:12:50;;;;;;;35.47;29.98;;;;;;;9.73;100.00;102803.06;5188134;28;20042;-68
2021/10/09 01:15:24;;;;;;;34.10;29.60;;;;;;;9.73;100.00;102798.69;5189550;28;20030;-68
2021/10/09 01:17:56;;;;;;;34.20;29.73;;;;;;;9.73;100.00;102797.84;5187994;28;20037;-67
2021/10/09 01:20:42;;;;;;;36.42;31.25;;;;;;;9.80;100.00;102801.84;5186726;28;20042;-69
2021/10/09 01:23:14;;;;;;;35.85;29.73;;;;;;;9.66;100.00;102796.44;5188584;28;20388;-68
2021/10/09 01:25:47;;;;;;;37.30;32.63;;;;;;;9.58;100.00;102795.97;5186427;28;20045;-68
2021/10/09 01:28:18;;;;;;;35.65;30.58;;;;;;;9.65;100.00;102792.97;5185303;28;20034;-67
2021/10/09 01:30:53;;;;;;;36.50;32.38;;;;;;;9.65;100.00;102794.75;5183777;28;20038;-68
2021/10/09 01:33:24;;;;;;;37.45;32.90;;;;;;;9.56;100.00;102795.22;5184981;28;20117;-69
2021/10/09 01:35:56;;;;;;;37.97;33.25;;;;;;;9.57;100.00;102796.91;5185646;28;20049;-68
2021/10/09 01:38:28;;;;;;;34.77;30.57;;;;;;;9.56;100.00;102796.06;5185157;28;20037;-69
2021/10/09 01:41:00;;;;;;;37.90;33.30;;;;;;;9.55;100.00;102799.63;5186155;28;20038;-68
2021/10/09 01:43:32;;;;;;;36.88;32.40;;;;;;;9.49;100.00;102779.81;5188763;28;20078;-69
2021/10/09 01:46:03;;;;;;;38.15;32.28;;;;;;;9.55;100.00;102790.94;5186614;28;20712;-68
2021/10/09 01:48:37;;;;;;;37.05;33.03;;;;;;;9.52;100.00;102788.44;5187214;28;20121;-67
2021/10/09 01:51:10;;;;;;;39.70;33.50;;;;;;;9.47;100.00;102786.03;5191374;28;20034;-69
2021/10/09 01:53:41;;;;;;;42.58;35.15;;;;;;;9.50;100.00;102784.13;5190774;28;20041;-68
2021/10/09 01:56:12;;;;;;;42.03;32.97;;;;;;;9.48;100.00;102783.38;5187425;28;20030;-67
2021/10/09 01:58:44;;;;;;;39.60;33.42;;;;;;;9.52;100.00;102789.28;5190136;28;20040;-68
2021/10/09 02:01:15;;;;;;;39.92;32.35;;;;;;;9.46;100.00;102787.81;5187053;28;20768;-68
2021/10/09 02:03:48;;;;;;;36.80;32.58;;;;;;;9.47;100.00;102789.53;5190445;28;20515;-68
2021/10/09 02:06:19;;;;;;;40.03;34.78;;;;;;;9.43;100.00;102787.97;5189422;28;20027;-68
2021/10/09 02:08:50;;;;;;;38.75;33.17;;;;;;;9.30;100.00;102780.78;5187356;28;20520;-68
2021/10/09 02:11:25;;;;;;;42.53;34.42;;;;;;;9.35;100.00;102784.03;5189440;28;20038;-68
2021/10/09 02:25:46;;;;;;;39.38;34.72;;;;;;;9.28;100.00;102778.28;5189774;28;20034;-67
2021/10/09 02:27:56;;;;;;;41.25;33.63;;;;;;;9.27;100.00;102776.56;5179522;28;20124;-68
2021/10/09 02:30:27;;;;;;;42.72;34.75;;;;;;;9.18;100.00;102783.09;5187062;28;20038;-69
2021/10/09 02:32:58;;;;;;;39.40;33.95;;;;;;;9.17;100.00;102780.56;5189374;28;20027;-69
2021/10/09 02:35:30;;;;;;;41.50;33.95;;;;;;;9.23;100.00;102777.63;5187476;28;20034;-67
2021/10/09 02:38:04;;;;;;;43.13;35.53;;;;;;;9.17;100.00;102773.53;5187277;28;20101;-68
2021/10/09 02:40:36;;;;;;;;;;;;;;;9.52;100.00;102780.59;5188297;28;20030;-67
2021/10/09 02:43:07;;;;;;;41.80;33.50;;;;;;;9.14;100.00;102767.63;5189828;28;20525;-68
2021/10/09 02:45:39;;;;;;;40.90;35.25;;;;;;;9.14;100.00;102771.06;5187624;28;20594;-67
2021/10/09 02:48:10;;;;;;;41.22;34.10;;;;;;;9.08;100.00;102775.75;5191096;28;20476;-67
2021/10/09 02:50:43;;;;;;;43.00;34.92;;;;;;;9.06;100.00;102770.59;5189344;28;20030;-67
2021/10/09 02:53:15;;;;;;;40.20;33.83;;;;;;;9.00;100.00;102770.88;5186719;28;20064;-68
2021/10/09 02:55:46;;;;;;;44.30;35.58;;;;;;;8.95;100.00;102776.34;5189435;28;20157;-68
2021/10/09 02:58:18;;;;;;;44.45;35.78;;;;;;;8.98;100.00;102767.50;5191486;28;20026;-68
2021/10/09 03:00:49;;;;;;;46.00;35.88;;;;;;;8.96;100.00;102759.72;5188236;28;20058;-68
2021/10/09 03:03:21;;;;;;;47.50;36.35;;;;;;;8.96;100.00;102764.09;5187588;28;20505;-68
2021/10/09 03:05:52;;;;;;;45.95;34.70;;;;;;;8.92;100.00;102768.63;5188364;28;20559;-68
2021/10/09 03:08:23;;;;;;;43.15;35.85;;;;;;;8.88;100.00;102763.63;5187218;28;20030;-68
2021/10/09 03:10:55;;;;;;;39.13;34.30;;;;;;;8.86;100.00;102773.28;5188028;28;20030;-67
2021/10/09 03:13:26;;;;;;;41.85;33.63;;;;;;;8.87;100.00;102770.63;5187221;28;20034;-68
2021/10/09 03:15:58;;;;;;;43.45;34.35;;;;;;;8.87;100.00;102769.78;5189734;28;20038;-69
2021/10/09 03:18:29;;;;;;;47.05;35.90;;;;;;;8.87;100.00;102773.22;5189283;28;20049;-67
2021/10/09 03:21:00;;;;;;;45.80;35.58;;;;;;;8.81;100.00;102770.91;5188454;28;20073;-67
2021/10/09 03:23:32;;;;;;;48.78;37.17;;;;;;;8.82;100.00;102771.75;5190930;28;20053;-68
2021/10/09 03:26:04;;;;;;;45.75;34.75;;;;;;;8.77;100.00;102771.97;5189263;28;20025;-68
2021/10/09 03:28:35;;;;;;;45.80;36.58;;;;;;;8.76;100.00;102775.50;5187569;28;20393;-67
2021/10/09 03:31:06;;;;;;;43.75;36.45;;;;;;;8.68;100.00;102773.25;5188679;28;20042;-67
2021/10/09 03:33:38;;;;;;;50.05;38.70;;;;;;;8.74;100.00;102780.78;5188957;28;20037;-69
2021/10/09 03:36:09;;;;;;;49.42;38.47;;;;;;;8.69;100.00;102774.91;5188310;28;20035;-68
2021/10/09 03:38:41;;;;;;;47.38;38.17;;;;;;;8.71;100.00;102769.63;5186889;28;20586;-68
2021/10/09 03:41:14;;;;;;;51.20;38.92;;;;;;;8.68;100.00;102770.63;5189233;28;20459;-68
2021/10/09 03:43:45;;;;;;;44.78;36.20;;;;;;;8.70;100.00;102767.94;5188758;28;20089;-67
2021/10/09 03:54:15;;;;;;;48.20;37.88;;;;;;;8.58;100.00;102766.72;5187504;28;20027;-67
2021/10/09 03:56:46;;;;;;;47.65;37.22;;;;;;;8.58;100.00;102771.94;5186499;28;20038;-68
2021/10/09 03:59:17;;;;;;;51.00;38.13;;;;;;;8.53;100.00;102769.56;5186138;28;20397;-67
2021/10/09 04:01:49;;;;;;;50.55;41.05;;;;;;;8.55;100.00;102769.47;5187372;28;20038;-67
2021/10/09 04:04:22;;;;;;;50.22;37.38;;;;;;;8.48;100.00;102768.91;5187852;28;20031;-67
2021/10/09 04:06:53;;;;;;;52.22;40.10;;;;;;;8.51;100.00;102771.38;5188442;28;20030;-69
2021/10/09 04:09:25;;;;;;;51.55;39.13;;;;;;;8.50;100.00;102771.47;5188578;28;20046;-67
2021/10/09 04:11:56;;;;;;;53.20;39.53;;;;;;;8.48;100.00;102771.50;5189289;28;20023;-67
2021/10/09 04:14:27;;;;;;;54.20;40.97;;;;;;;8.49;100.00;102777.59;5187317;28;20030;-67
2021/10/09 04:16:58;;;;;;;54.53;40.03;;;;;;;8.46;100.00;102772.50;5187978;28;20037;-67
2021/10/09 04:19:30;;;;;;;52.42;39.90;;;;;;;8.45;100.00;102770.84;5188552;28;20022;-69
2021/10/09 04:22:01;;;;;;;52.15;39.15;;;;;;;8.45;100.00;102765.59;5186231;28;20355;-68
2021/10/09 04:24:33;;;;;;;54.97;41.58;;;;;;;8.46;100.00;102773.34;5188553;28;20059;-67
2021/10/09 04:27:04;;;;;;;57.55;42.05;;;;;;;8.43;100.00;102768.25;5183751;28;20105;-69
2021/10/09 04:29:36;;;;;;;61.25;41.92;;;;;;;8.43;100.00;102778.72;5185941;28;20125;-68
2021/10/09 04:32:07;;;;;;;58.90;42.20;;;;;;;8.44;100.00;102771.72;5188772;28;20543;-67
2021/10/09 04:34:38;;;;;;;55.67;41.33;;;;;;;8.41;100.00;102777.06;5187212;28;20054;-68
2021/10/09 04:37:09;;;;;;;55.63;41.58;;;;;;;8.40;100.00;102770.16;5189120;28;20030;-67
2021/10/09 04:39:41;;;;;;;54.63;39.90;;;;;;;8.42;100.00;102779.63;5188267;28;20030;-67
2021/10/09 04:42:12;;;;;;;53.03;38.85;;;;;;;8.36;100.00;102779.88;5190489;28;20245;-67
2021/10/09 04:44:43;;;;;;;54.55;40.78;;;;;;;8.35;100.00;102772.97;5189292;28;20070;-68
2021/10/09 04:47:15;;;;;;;58.85;42.45;;;;;;;8.34;100.00;102766.06;5188344;28;20022;-67
2021/10/09 04:49:46;;;;;;;61.97;42.42;;;;;;;8.30;100.00;102769.72;5186885;28;20042;-68
2021/10/09 04:52:17;;;;;;;58.30;40.83;;;;;;;8.28;100.00;102774.16;5188283;28;20030;-67
2021/10/09 04:54:49;;;;;;;60.63;41.92;;;;;;;8.34;100.00;102778.25;5187459;28;20080;-68
2021/10/09 04:57:20;;;;;;;67.07;43.38;;;;;;;8.25;100.00;102776.88;5187457;28;20086;-67
2021/10/09 04:59:53;;;;;;;67.38;43.72;;;;;;;8.29;100.00;102775.84;5190795;28;20022;-67
2021/10/09 05:02:24;;;;;;;;;;;;;;;8.62;100.00;102777.88;5193107;28;20076;-67
2021/10/09 05:04:55;;;;;;;89.57;42.70;;;;;;;8.33;100.00;102773.94;5192479;28;19913;-67
2021/10/09 05:07:27;;;;;;;85.90;43.65;;;;;;;8.29;100.00;102778.44;5189036;28;20569;-67
2021/10/09 05:09:58;;;;;;;101.88;44.90;;;;;;;8.27;100.00;102775.91;5190478;28;20519;-68
2021/10/09 05:12:29;;;;;;;120.35;45.35;;;;;;;8.24;100.00;102776.03;5190650;28;20030;-67
2021/10/09 05:15:02;;;;;;;77.40;44.17;;;;;;;8.23;100.00;102790.03;5192642;28;20026;-69
2021/10/09 05:17:33;;;;;;;87.50;42.83;;;;;;;8.24;100.00;102793.47;5191935;28;20098;-67
2021/10/09 05:20:05;;;;;;;100.10;42.72;;;;;;;8.23;100.00;102791.78;5191319;28;20057;-68
2021/10/09 05:22:37;;;;;;;104.70;42.30;;;;;;;8.20;100.00;102786.69;5190299;28;20481;-67
2021/10/09 05:25:08;;;;;;;124.93;45.40;;;;;;;8.16;100.00;102782.53;5190978;28;20084;-67
2021/10/09 05:27:45;;;;;;;105.85;43.42;;;;;;;8.13;100.00;102787.88;5191625;28;20038;-67
2021/10/09 05:30:16;;;;;;;212.95;45.88;;;;;;;8.14;100.00;102784.34;5192265;28;20023;-67
2021/10/09 05:32:58;;;;;;;87.97;39.53;;;;;;;8.19;100.00;102785.00;5193281;28;20089;-67
2021/10/09 05:35:29;;;;;;;106.47;41.60;;;;;;;8.13;100.00;102786.09;5191973;28;20050;-67
2021/10/09 05:38:01;;;;;;;62.15;40.72;;;;;;;8.15;100.00;102791.28;5193115;28;20026;-68
2021/10/09 05:40:32;;;;;;;90.55;40.53;;;;;;;8.11;100.00;102789.72;5193859;28;20030;-67
2021/10/09 05:43:03;;;;;;;68.68;41.17;;;;;;;8.13;100.00;102787.88;5191546;28;20061;-67
2021/10/09 05:45:35;;;;;;;122.65;41.13;;;;;;;8.11;100.00;102792.31;5190233;28;20033;-67
2021/10/09 05:48:07;;;;;;;90.13;38.97;;;;;;;8.13;100.00;102793.09;5194506;28;20522;-68
2021/10/09 05:53:43;;;;;;;135.27;40.65;;;;;;;8.08;100.00;102785.47;5192282;28;20154;-67
2021/10/09 06:59:43;;;;;;;73.53;41.03;;;;;;;8.28;100.00;102839.44;5189514;28;20026;-68
2021/10/09 07:02:14;;;;;;;67.72;42.67;;;;;;;8.29;100.00;102838.50;5190653;28;20023;-68
2021/10/09 07:04:45;;;;;;;80.05;42.15;;;;;;;8.29;100.00;102833.28;5190584;28;20022;-67
2021/10/09 07:07:19;;;;;;;65.18;41.67;;;;;;;8.34;100.00;102848.78;5189561;28;20452;-67
2021/10/09 07:09:50;;;;;;;62.80;41.38;;;;;;;8.38;100.00;102842.53;5186958;28;20129;-68
2021/10/09 07:12:21;;;;;;;64.47;43.08;;;;;;;8.42;100.00;102850.16;5187452;28;20026;-68
2021/10/09 07:14:53;;;;;;;62.70;43.22;;;;;;;8.42;100.00;102847.56;5186627;28;20146;-68
2021/10/09 07:17:24;;;;;;;69.60;45.80;;;;;;;8.45;100.00;102841.34;5189056;28;20033;-67
2021/10/09 07:19:55;;;;;;;70.90;47.15;;;;;;;8.43;100.00;102846.63;5187888;28;20023;-67
2021/10/09 07:22:27;;;;;;;63.45;43.08;;;;;;;8.47;100.00;102844.72;5186772;28;20128;-67
2021/10/09 07:24:58;;;;;;;68.10;45.58;;;;;;;8.47;100.00;102847.34;5185426;28;20033;-67
2021/10/09 07:27:30;;;;;;;64.97;45.03;;;;;;;8.50;100.00;102858.50;5188392;28;20053;-67
2021/10/09 07:30:01;;;;;;;70.00;45.88;;;;;;;8.58;100.00;102860.78;5187906;28;20058;-67
2021/10/09 07:32:33;;;;;;;71.68;46.00;;;;;;;8.62;100.00;102858.88;5190806;28;20034;-67
2021/10/09 07:35:05;;;;;;;75.88;47.17;;;;;;;8.64;100.00;102857.91;5187016;28;20034;-67
2021/10/09 07:37:37;;;;;;;75.43;47.45;;;;;;;8.67;100.00;102851.69;5188776;28;20088;-67
2021/10/09 07:40:09;;;;;;;77.28;48.40;;;;;;;8.71;100.00;102859.34;5189061;28;20058;-68
2021/10/09 07:42:41;;;;;;;73.07;47.97;;;;;;;8.75;100.00;102857.41;5187669;28;20482;-67
2021/10/09 07:45:12;;;;;;;77.05;48.65;;;;;;;8.77;100.00;102859.03;5188704;28;20181;-68
2021/10/09 07:47:43;;;;;;;77.60;51.65;;;;;;;8.84;100.00;102861.41;5189124;28;20034;-68
2021/10/09 07:50:15;;;;;;;79.90;49.33;;;;;;;8.86;100.00;102856.94;5186871;28;20034;-68
2021/10/09 07:52:46;;;;;;;80.50;51.78;;;;;;;8.91;100.00;102863.66;5188252;28;20397;-68
2021/10/09 07:55:17;;;;;;;73.22;48.88;;;;;;;8.96;100.00;102871.28;5188947;28;20042;-68
2021/10/09 07:57:49;;;;;;;73.47;48.70;;;;;;;9.05;100.00;102863.00;5185058;28;20384;-67
2021/10/09 08:00:20;;;;;;;72.53;48.60;;;;;;;9.06;100.00;102869.09;5189606;28;20233;-67
2021/10/09 08:02:52;;;;;;;71.38;48.78;;;;;;;9.14;100.00;102872.22;5187230;28;20033;-67
2021/10/09 08:05:24;;;;;;;76.68;48.53;;;;;;;9.18;100.00;102866.75;5188046;28;20105;-68
2021/10/09 08:07:56;;;;;;;78.55;50.05;;;;;;;9.25;100.00;102870.78;5186522;28;20032;-67
2021/10/09 08:10:27;;;;;;;71.90;49.08;;;;;;;9.31;100.00;102868.81;5187732;28;20053;-68
2021/10/09 08:12:58;;;;;;;74.22;52.97;;;;;;;9.32;100.00;102866.13;5187161;28;20029;-68
2021/10/09 08:15:29;;;;;;;76.78;51.38;;;;;;;9.40;100.00;102871.00;5181445;28;20026;-67
2021/10/09 08:18:01;;;;;;;75.78;49.30;;;;;;;9.44;100.00;102876.00;5185716;28;20030;-68
2021/10/09 08:20:32;;;;;;;71.90;50.30;;;;;;;9.52;100.00;102875.63;5188983;28;20035;-67
2021/10/09 08:23:08;;;;;;;69.80;47.42;;;;;;;9.58;100.00;102874.47;5186503;28;20361;-67
2021/10/09 08:37:06;;;;;;;63.50;47.97;;;;;;;9.91;100.00;102870.22;5182509;28;20046;-68
2021/10/09 08:39:37;;;;;;;64.43;49.60;;;;;;;10.09;100.00;102888.56;5187990;28;20033;-68
2021/10/09 08:42:09;;;;;;;66.40;47.60;;;;;;;10.14;100.00;102892.63;5191411;28;20034;-68
2021/10/09 08:44:42;;;;;;;65.35;47.58;;;;;;;10.26;100.00;102893.81;5189086;28;20109;-68
2021/10/09 08:47:13;;;;;;;62.75;48.40;;;;;;;10.30;100.00;102887.50;5191265;28;20508;-68
2021/10/09 08:49:45;;;;;;;64.82;47.88;;;;;;;10.35;100.00;102895.16;5189449;28;20270;-68
2021/10/09 08:52:20;;;;;;;61.20;46.95;;;;;;;10.48;100.00;102890.97;5190728;28;20034;-68
2021/10/09 08:54:52;;;;;;;68.10;48.53;;;;;;;10.52;100.00;102894.28;5192806;28;20042;-68
2021/10/09 08:57:25;;;;;;;65.20;49.50;;;;;;;10.66;100.00;102887.38;5187497;28;20073;-68
2021/10/09 09:00:05;;;;;;;63.33;47.88;;;;;;;10.71;100.00;102890.59;5190328;28;20030;-68
2021/10/09 09:02:43;;;;;;;62.88;47.50;;;;;;;10.82;100.00;102890.03;5191090;28;20034;-68
2021/10/09 09:05:40;;;;;;;58.80;47.08;;;;;;;10.92;100.00;102886.00;5193074;28;20022;-68
2021/10/09 09:25:36;;;;;;;53.50;43.10;;;;;;;11.67;100.00;102887.09;5187234;28;20030;-68
2021/10/09 09:31:27;;;;;;;48.70;38.85;;;;;;;11.92;100.00;102883.09;5189091;28;20046;-68
2021/10/09 09:37:10;;;;;;;45.28;37.90;;;;;;;12.12;100.00;102879.28;5187415;28;20121;-68
2021/10/09 09:39:44;;;;;;;51.05;38.08;;;;;;;12.25;100.00;102874.19;5187103;28;20050;-68
2021/10/09 09:42:22;;;;;;;;;;;;;;;12.53;100.00;102868.94;5189634;28;20121;-67
2021/10/09 09:44:56;;;;;;;47.63;36.10;;;;;;;12.52;100.00;102867.25;5184933;28;20020;-68
2021/10/09 09:47:36;;;;;;;42.40;36.55;;;;;;;12.65;100.00;102865.59;5176839;28;20488;-68
2021/10/09 09:50:10;;;;;;;46.97;35.63;;;;;;;12.67;100.00;102865.47;5178627;28;20041;-68
2021/10/09 09:52:43;;;;;;;52.22;37.38;;;;;;;12.79;100.00;102861.25;5179877;28;20038;-68
2021/10/09 09:55:16;;;;;;;46.88;36.13;;;;;;;12.99;100.00;102857.34;5177524;28;20039;-68
2021/10/09 09:57:51;;;;;;;45.38;36.33;;;;;;;13.01;100.00;102853.69;5178764;28;20030;-68
2021/10/09 10:00:22;;;;;;;41.28;34.70;;;;;;;13.11;100.00;102853.97;5188840;28;20378;-68
2021/10/09 10:02:56;;;;;;;42.30;32.92;;;;;;;13.15;100.00;102855.47;5191646;28;20029;-68
2021/10/09 10:05:28;;;;;;;40.22;33.53;;;;;;;13.35;100.00;102848.94;5189828;28;20026;-68
2021/10/09 10:08:00;;;;;;;39.47;33.83;;;;;;;13.42;100.00;102859.94;5191704;28;20027;-68
2021/10/09 10:10:31;;;;;;;43.97;33.47;;;;;;;13.48;100.00;102851.63;5188667;28;20065;-68
2021/10/09 10:13:03;;;;;;;41.55;33.47;;;;;;;13.61;100.00;102855.16;5188618;28;20071;-68
2021/10/09 10:15:34;;;;;;;41.42;33.53;;;;;;;13.67;100.00;102853.88;5188908;28;20035;-68
2021/10/09 10:18:06;;;;;;;37.40;31.45;;;;;;;13.75;100.00;102855.09;5189658;28;20060;-68
2021/10/09 10:20:57;;;;;;;41.85;33.63;;;;;;;13.95;100.00;102858.19;5189270;28;20057;-68
2021/10/09 10:23:36;;;;;;;36.75;32.15;;;;;;;14.02;100.00;102856.84;5184419;28;20393;-68
2021/10/09 10:26:20;;;;;;;42.83;34.28;;;;;;;14.16;100.00;102854.09;5183086;28;20029;-69
2021/10/09 10:28:51;;;;;;;36.25;30.85;;;;;;;14.15;100.00;102852.41;5181725;28;20106;-68
2021/10/09 10:31:25;;;;;;;34.87;30.77;;;;;;;14.17;100.00;102849.66;5184158;28;20034;-68
2021/10/09 10:34:23;;;;;;;40.38;32.67;;;;;;;14.29;100.00;102862.03;5183318;28;20034;-67
2021/10/09 10:36:54;;;;;;;39.83;30.73;;;;;;;14.29;100.00;102848.84;5179615;28;20115;-68
2021/10/09 10:39:40;;;;;;;36.38;30.27;;;;;;;14.46;100.00;102845.84;5185223;28;20036;-69
2021/10/09 10:42:29;;;;;;;40.20;31.10;;;;;;;14.62;100.00;102855.38;5179344;28;20026;-68
2021/10/09 10:45:17;;;;;;;37.95;30.02;;;;;;;14.70;100.00;102847.75;5180028;28;20053;-69
2021/10/09 10:53:50;;;;;;;41.38;31.02;;;;;;;15.04;100.00;102852.34;5180451;28;20093;-69
2021/10/09 10:56:21;;;;;;;38.45;29.92;;;;;;;14.92;100.00;102852.38;5178615;28;20121;-69
2021/10/09 10:59:31;;;;;;;35.33;30.00;;;;;;;15.18;100.00;102846.06;5185685;28;20026;-68
2021/10/09 11:02:10;;;;;;;36.83;29.30;;;;;;;15.13;100.00;102842.91;5185600;28;20070;-69
2021/10/09 11:04:44;;;;;;;39.65;30.50;;;;;;;15.21;100.00;102840.56;5184951;28;20090;-69
2021/10/09 11:07:17;;;;;;;35.05;28.80;;;;;;;15.40;100.00;102836.56;5187112;28;20491;-69
2021/10/09 11:09:50;;;;;;;38.95;31.08;;;;;;;15.46;100.00;102836.13;5185021;28;20047;-69
2021/10/09 11:12:30;;;;;;;32.30;28.17;;;;;;;15.47;100.00;102832.53;5186557;28;20408;-70
2021/10/09 11:15:07;;;;;;;37.33;27.30;;;;;;;15.60;100.00;102833.28;5187995;28;20069;-69
2021/10/09 11:17:40;;;;;;;35.45;28.42;;;;;;;15.57;100.00;102841.47;5185548;28;20030;-69
2021/10/09 11:20:12;;;;;;;;;;;;;;;15.95;100.00;102835.97;5187479;28;20109;-69
2021/10/09 11:22:46;;;;;;;34.95;27.52;;;;;;;15.82;100.00;102830.75;5183302;28;19914;-69
2021/10/09 11:25:30;;;;;;;34.63;27.20;;;;;;;15.98;100.00;102826.94;5183252;28;20019;-69
2021/10/09 11:28:07;;;;;;;41.42;27.98;;;;;;;16.06;100.00;102824.56;5184256;28;20093;-69
2021/10/09 11:30:39;;;;;;;35.50;28.83;;;;;;;15.92;100.00;102827.44;5184246;28;20062;-69
2021/10/09 11:33:10;;;;;;;33.35;27.63;;;;;;;15.97;100.00;102825.28;5185741;28;20146;-69
2021/10/09 11:35:42;;;;;;;34.42;29.67;;;;;;;16.06;100.00;102827.19;5182282;28;20034;-70
2021/10/09 11:38:33;;;;;;;33.55;29.48;;;;;;;16.29;100.00;102820.16;5183271;28;20491;-69
2021/10/09 11:41:21;;;;;;;33.13;27.48;;;;;;;16.19;100.00;102822.66;5186091;28;20548;-69
2021/10/09 11:47:16;;;;;;;28.50;24.98;;;;;;;16.32;100.00;102814.59;5181749;28;20053;-69
2021/10/09 11:53:37;;;;;;;29.23;24.95;;;;;;;16.56;100.00;102811.03;5168038;28;20043;-69
2021/10/09 11:56:10;;;;;;;29.48;23.85;;;;;;;16.56;100.00;102808.38;5180258;28;20049;-69
2021/10/09 11:58:52;;;;;;;28.23;24.80;;;;;;;16.66;100.00;102806.66;5181220;28;20084;-70
2021/10/09 12:01:29;;;;;;;29.40;22.50;;;;;;;16.64;100.00;102817.38;5183699;28;20054;-69
2021/10/09 12:04:14;;;;;;;30.77;24.13;;;;;;;16.73;100.00;102814.03;5182067;28;20149;-69
2021/10/09 12:06:58;;;;;;;31.48;22.80;;;;;;;16.83;100.00;102811.50;5182929;28;20117;-70
2021/10/09 12:09:33;;;;;;;32.97;24.42;;;;;;;16.86;100.00;102805.09;5184201;28;20055;-69
2021/10/09 12:12:15;;;;;;;33.10;25.55;;;;;;;16.89;100.00;102802.22;5188159;28;20073;-70
2021/10/09 12:14:49;;;;;;;28.92;24.02;;;;;;;17.02;100.00;102801.09;5189022;28;20027;-69
2021/10/09 12:17:32;;;;;;;29.05;24.70;;;;;;;17.00;100.00;102794.25;5189056;28;20672;-69
2021/10/09 12:20:06;;;;;;;30.98;24.52;;;;;;;17.15;100.00;102800.94;5183815;28;20058;-69
2021/10/09 12:22:47;;;;;;;29.63;24.08;;;;;;;17.01;100.00;102801.25;5185756;28;20026;-69
2021/10/09 12:25:26;;;;;;;27.08;22.75;;;;;;;17.12;100.00;102803.00;5185379;28;20171;-69
2021/10/09 12:28:01;;;;;;;26.33;22.85;;;;;;;17.10;100.00;102800.47;5186940;28;20141;-71
2021/10/09 12:30:44;;;;;;;29.48;23.48;;;;;;;17.11;100.00;102802.16;5186057;28;20038;-70
2021/10/09 12:33:36;;;;;;;28.63;23.57;;;;;;;17.25;100.00;102798.38;5186033;28;20343;-70
2021/10/09 12:36:29;;;;;;;28.83;22.70;;;;;;;17.27;100.00;102786.72;5184724;28;20392;-69
2021/10/09 12:39:27;;;;;;;31.50;25.17;;;;;;;17.41;100.00;102788.19;5184397;28;20551;-70
2021/10/09 12:41:58;;;;;;;29.23;24.80;;;;;;;17.39;100.00;102784.00;5183409;28;20031;-70
2021/10/09 12:44:29;;;;;;;30.92;23.48;;;;;;;17.40;100.00;102783.03;5183991;28;20038;-69
2021/10/09 12:47:01;;;;;;;24.13;20.88;;;;;;;17.58;100.00;102784.16;5183302;28;20038;-69
2021/10/09 12:49:32;;;;;;;28.87;22.67;;;;;;;17.56;100.00;102785.25;5180691;28;20026;-69
2021/10/09 12:52:04;;;;;;;28.15;21.77;;;;;;;17.52;100.00;102779.34;5185438;28;20057;-69
2021/10/09 12:54:35;;;;;;;30.10;24.08;;;;;;;17.46;100.00;102771.91;5187964;28;20045;-69
2021/10/09 12:57:08;;;;;;;28.10;23.90;;;;;;;17.34;100.00;102773.78;5185479;28;20113;-69
2021/10/09 12:59:39;;;;;;;;;;;;;;;17.68;100.00;102773.59;5187908;28;20114;-69
2021/10/09 13:02:10;;;;;;;34.37;24.27;;;;;;;17.34;100.00;102770.28;5187182;28;20354;-71
2021/10/09 13:04:42;;;;;;;29.17;23.60;;;;;;;17.20;100.00;102768.78;5183142;28;20026;-69
2021/10/09 13:07:13;;;;;;;29.38;24.33;;;;;;;17.19;100.00;102764.44;5183279;28;20515;-69
2021/10/09 13:09:44;;;;;;;28.42;22.88;;;;;;;17.34;100.00;102765.81;5183768;28;20051;-71
2021/10/09 13:12:16;;;;;;;26.53;22.07;;;;;;;17.27;100.00;102754.03;5185790;28;20100;-69
2021/10/09 13:14:47;;;;;;;27.60;21.65;;;;;;;17.39;100.00;102765.47;5184156;28;20041;-70
2021/10/09 13:17:18;;;;;;;28.23;22.92;;;;;;;17.27;100.00;102762.00;5184965;28;20053;-69
2021/10/09 13:19:49;;;;;;;28.80;23.52;;;;;;;17.33;100.00;102750.91;5185419;28;20558;-69
2021/10/09 13:22:21;;;;;;;27.95;23.40;;;;;;;17.30;100.00;102761.75;5182702;28;20034;-71
2021/10/09 13:24:52;;;;;;;32.67;23.63;;;;;;;17.29;100.00;102759.25;5184797;28;20069;-69
2021/10/09 13:27:24;;;;;;;32.35;21.90;;;;;;;17.30;100.00;102761.75;5186832;28;20112;-70
2021/10/09 13:29:55;;;;;;;28.52;22.20;;;;;;;17.16;100.00;102760.25;5186064;28;20022;-69
2021/10/09 13:32:27;;;;;;;26.88;23.08;;;;;;;17.11;100.00;102762.44;5186163;28;20034;-70
2021/10/09 13:34:58;;;;;;;31.15;23.13;;;;;;;17.19;100.00;102751.19;5187654;28;20026;-70
2021/10/09 13:37:31;;;;;;;34.10;25.50;;;;;;;17.20;100.00;102751.09;5186898;28;20038;-69
2021/10/09 13:40:03;;;;;;;28.00;22.67;;;;;;;17.22;100.00;102761.53;5190082;28;20747;-70
2021/10/09 13:42:35;;;;;;;24.92;22.17;;;;;;;17.23;100.00;102750.81;5185785;28;20037;-70
2021/10/09 13:45:06;;;;;;;29.55;22.63;;;;;;;17.30;100.00;102745.03;5188419;28;20475;-71
2021/10/09 13:47:39;;;;;;;28.35;22.55;;;;;;;17.29;100.00;102746.00;5186760;28;20113;-69
2021/10/09 13:50:12;;;;;;;25.10;21.75;;;;;;;17.23;100.00;102747.31;5186183;28;20031;-69